sensor_id;sensor_type;location;lat;lon;timestamp;P1;durP1;ratioP1;P2;durP2;ratioP2
76761;SDS011;65705;51.032;13.790;2023-05-10T00:01:05;3.35;;;1.30;;
76761;SDS011;65705;51.032;13.790;2023-05-10T00:03:31;4.88;;;1.60;;
76761;SDS011;65705;51.032;13.790;2023-05-10T00:05:57;4.38;;;1.13;;
76761;SDS011;65705;51.032;13.790;2023-05-10T00:08:23;12.05;;;1.63;;
76761;SDS011;65705;51.032;13.790;2023-05-10T00:10:49;4.13;;;1.55;;
76761;SDS011;65705;51.032;13.790;2023-05-10T00:13:15;4.97;;;1.70;;
76761;SDS011;65705;51.032;13.790;2023-05-10T00:15:41;2.55;;;1.25;;
76761;SDS011;65705;51.032;13.790;2023-05-10T00:18:07;3.58;;;1.38;;
76761;SDS011;65705;51.032;13.790;2023-05-10T00:20:32;3.20;;;1.25;;
76761;SDS011;65705;51.032;13.790;2023-05-10T00:22:58;4.63;;;1.40;;
76761;SDS011;65705;51.032;13.790;2023-05-10T00:25:24;3.45;;;1.30;;
76761;SDS011;65705;51.032;13.790;2023-05-10T00:27:50;4.60;;;1.52;;
76761;SDS011;65705;51.032;13.790;2023-05-10T00:30:16;6.82;;;1.83;;
76761;SDS011;65705;51.032;13.790;2023-05-10T00:32:41;3.10;;;1.20;;
76761;SDS011;65705;51.032;13.790;2023-05-10T00:35:08;5.18;;;1.38;;
76761;SDS011;65705;51.032;13.790;2023-05-10T00:37:34;5.28;;;1.48;;
76761;SDS011;65705;51.032;13.790;2023-05-10T00:40:01;3.47;;;1.27;;
76761;SDS011;65705;51.032;13.790;2023-05-10T00:42:27;2.65;;;1.30;;
76761;SDS011;65705;51.032;13.790;2023-05-10T00:44:54;4.18;;;1.40;;
76761;SDS011;65705;51.032;13.790;2023-05-10T00:47:20;3.50;;;1.30;;
76761;SDS011;65705;51.032;13.790;2023-05-10T00:49:46;2.25;;;1.10;;
76761;SDS011;65705;51.032;13.790;2023-05-10T00:52:11;6.32;;;1.38;;
76761;SDS011;65705;51.032;13.790;2023-05-10T00:54:37;3.92;;;1.30;;
76761;SDS011;65705;51.032;13.790;2023-05-10T00:57:03;3.63;;;1.45;;
76761;SDS011;65705;51.032;13.790;2023-05-10T00:59:29;4.65;;;1.23;;
76761;SDS011;65705;51.032;13.790;2023-05-10T01:01:55;2.63;;;1.30;;
76761;SDS011;65705;51.032;13.790;2023-05-10T01:04:21;3.97;;;1.05;;
76761;SDS011;65705;51.032;13.790;2023-05-10T01:06:51;3.38;;;1.65;;
76761;SDS011;65705;51.032;13.790;2023-05-10T01:09:18;4.95;;;1.45;;
76761;SDS011;65705;51.032;13.790;2023-05-10T01:11:44;4.35;;;1.30;;
76761;SDS011;65705;51.032;13.790;2023-05-10T01:14:10;6.20;;;1.20;;
76761;SDS011;65705;51.032;13.790;2023-05-10T01:16:38;4.20;;;1.27;;
76761;SDS011;65705;51.032;13.790;2023-05-10T01:19:06;2.70;;;1.10;;
76761;SDS011;65705;51.032;13.790;2023-05-10T01:24:45;3.75;;;1.30;;
76761;SDS011;65705;51.032;13.790;2023-05-10T01:38:42;2.45;;;1.23;;
76761;SDS011;65705;51.032;13.790;2023-05-10T01:44:37;2.85;;;1.65;;
76761;SDS011;65705;51.032;13.790;2023-05-10T01:46:48;2.90;;;1.27;;
76761;SDS011;65705;51.032;13.790;2023-05-10T01:49:25;1.85;;;1.17;;
76761;SDS011;65705;51.032;13.790;2023-05-10T01:51:55;3.13;;;1.00;;
76761;SDS011;65705;51.032;13.790;2023-05-10T01:54:29;3.97;;;1.23;;
76761;SDS011;65705;51.032;13.790;2023-05-10T01:57:05;4.35;;;1.20;;
76761;SDS011;65705;51.032;13.790;2023-05-10T01:59:34;4.75;;;1.25;;
76761;SDS011;65705;51.032;13.790;2023-05-10T02:02:04;3.60;;;1.13;;
76761;SDS011;65705;51.032;13.790;2023-05-10T02:04:31;5.07;;;1.30;;
76761;SDS011;65705;51.032;13.790;2023-05-10T02:07:00;4.10;;;1.20;;
76761;SDS011;65705;51.032;13.790;2023-05-10T02:09:27;3.33;;;1.40;;
76761;SDS011;65705;51.032;13.790;2023-05-10T02:11:55;5.68;;;1.45;;
76761;SDS011;65705;51.032;13.790;2023-05-10T02:14:25;2.30;;;1.00;;
76761;SDS011;65705;51.032;13.790;2023-05-10T02:16:52;2.78;;;1.23;;
76761;SDS011;65705;51.032;13.790;2023-05-10T02:19:20;2.85;;;1.25;;
76761;SDS011;65705;51.032;13.790;2023-05-10T02:21:48;4.25;;;1.30;;
76761;SDS011;65705;51.032;13.790;2023-05-10T02:24:16;4.53;;;1.10;;
76761;SDS011;65705;51.032;13.790;2023-05-10T02:26:44;4.13;;;1.25;;
76761;SDS011;65705;51.032;13.790;2023-05-10T02:29:13;3.17;;;1.35;;
76761;SDS011;65705;51.032;13.790;2023-05-10T02:31:41;3.83;;;1.45;;
76761;SDS011;65705;51.032;13.790;2023-05-10T02:34:08;3.70;;;1.40;;
76761;SDS011;65705;51.032;13.790;2023-05-10T02:36:36;5.05;;;1.33;;
76761;SDS011;65705;51.032;13.790;2023-05-10T02:39:03;2.88;;;1.35;;
76761;SDS011;65705;51.032;13.790;2023-05-10T02:41:34;3.55;;;1.30;;
76761;SDS011;65705;51.032;13.790;2023-05-10T02:44:01;2.80;;;1.30;;
76761;SDS011;65705;51.032;13.790;2023-05-10T02:46:29;4.72;;;1.38;;
76761;SDS011;65705;51.032;13.790;2023-05-10T02:48:55;3.15;;;1.25;;
76761;SDS011;65705;51.032;13.790;2023-05-10T02:51:21;2.38;;;1.13;;
76761;SDS011;65705;51.032;13.790;2023-05-10T02:53:51;2.13;;;1.00;;
76761;SDS011;65705;51.032;13.790;2023-05-10T02:56:23;2.50;;;1.02;;
76761;SDS011;65705;51.032;13.790;2023-05-10T02:58:51;3.05;;;1.20;;
76761;SDS011;65705;51.032;13.790;2023-05-10T03:01:17;2.90;;;1.23;;
76761;SDS011;65705;51.032;13.790;2023-05-10T03:03:43;2.90;;;1.38;;
76761;SDS011;65705;51.032;13.790;2023-05-10T03:06:09;4.57;;;1.30;;
76761;SDS011;65705;51.032;13.790;2023-05-10T03:08:35;4.47;;;1.25;;
76761;SDS011;65705;51.032;13.790;2023-05-10T03:13:43;4.57;;;1.25;;
76761;SDS011;65705;51.032;13.790;2023-05-10T03:16:27;4.53;;;1.30;;
76761;SDS011;65705;51.032;13.790;2023-05-10T03:19:07;3.00;;;1.20;;
76761;SDS011;65705;51.032;13.790;2023-05-10T03:21:34;6.45;;;1.50;;
76761;SDS011;65705;51.032;13.790;2023-05-10T03:24:07;2.08;;;1.10;;
76761;SDS011;65705;51.032;13.790;2023-05-10T03:26:37;2.97;;;1.13;;
76761;SDS011;65705;51.032;13.790;2023-05-10T03:29:11;2.92;;;1.27;;
76761;SDS011;65705;51.032;13.790;2023-05-10T03:31:39;2.53;;;1.17;;
76761;SDS011;65705;51.032;13.790;2023-05-10T03:34:05;6.63;;;1.38;;
76761;SDS011;65705;51.032;13.790;2023-05-10T03:36:32;3.70;;;1.52;;
76761;SDS011;65705;51.032;13.790;2023-05-10T03:38:58;2.30;;;0.95;;
76761;SDS011;65705;51.032;13.790;2023-05-10T03:41:24;2.90;;;1.38;;
76761;SDS011;65705;51.032;13.790;2023-05-10T03:43:51;2.42;;;1.25;;
76761;SDS011;65705;51.032;13.790;2023-05-10T03:46:16;3.40;;;1.50;;
76761;SDS011;65705;51.032;13.790;2023-05-10T03:48:43;4.55;;;1.50;;
76761;SDS011;65705;51.032;13.790;2023-05-10T03:51:09;4.30;;;1.30;;
76761;SDS011;65705;51.032;13.790;2023-05-10T03:53:34;7.72;;;1.58;;
76761;SDS011;65705;51.032;13.790;2023-05-10T03:56:01;3.67;;;1.20;;
76761;SDS011;65705;51.032;13.790;2023-05-10T03:58:26;1.92;;;1.02;;
76761;SDS011;65705;51.032;13.790;2023-05-10T04:00:52;4.63;;;1.40;;
76761;SDS011;65705;51.032;13.790;2023-05-10T04:03:19;5.57;;;1.35;;
76761;SDS011;65705;51.032;13.790;2023-05-10T04:05:45;5.32;;;1.02;;
76761;SDS011;65705;51.032;13.790;2023-05-10T04:08:11;14.32;;;1.30;;
76761;SDS011;65705;51.032;13.790;2023-05-10T04:10:37;4.07;;;1.20;;
76761;SDS011;65705;51.032;13.790;2023-05-10T04:13:02;7.80;;;2.13;;
76761;SDS011;65705;51.032;13.790;2023-05-10T04:15:28;3.50;;;1.40;;
76761;SDS011;65705;51.032;13.790;2023-05-10T04:17:54;3.08;;;1.40;;
76761;SDS011;65705;51.032;13.790;2023-05-10T04:20:19;6.57;;;1.75;;
76761;SDS011;65705;51.032;13.790;2023-05-10T04:22:45;3.33;;;1.55;;
76761;SDS011;65705;51.032;13.790;2023-05-10T04:25:11;4.85;;;2.40;;
76761;SDS011;65705;51.032;13.790;2023-05-10T04:27:37;6.95;;;1.90;;
76761;SDS011;65705;51.032;13.790;2023-05-10T04:30:02;6.15;;;1.60;;
76761;SDS011;65705;51.032;13.790;2023-05-10T04:32:29;6.15;;;1.70;;
76761;SDS011;65705;51.032;13.790;2023-05-10T04:34:55;5.95;;;1.58;;
76761;SDS011;65705;51.032;13.790;2023-05-10T04:37:21;4.22;;;1.25;;
76761;SDS011;65705;51.032;13.790;2023-05-10T04:39:48;2.13;;;1.02;;
76761;SDS011;65705;51.032;13.790;2023-05-10T04:42:13;2.90;;;1.10;;
76761;SDS011;65705;51.032;13.790;2023-05-10T04:44:40;3.67;;;1.33;;
76761;SDS011;65705;51.032;13.790;2023-05-10T04:47:06;3.75;;;1.30;;
76761;SDS011;65705;51.032;13.790;2023-05-10T04:49:31;3.80;;;1.50;;
76761;SDS011;65705;51.032;13.790;2023-05-10T04:51:57;3.97;;;1.30;;
76761;SDS011;65705;51.032;13.790;2023-05-10T04:54:23;4.43;;;1.20;;
76761;SDS011;65705;51.032;13.790;2023-05-10T04:56:49;4.25;;;1.30;;
76761;SDS011;65705;51.032;13.790;2023-05-10T04:59:15;4.78;;;1.13;;
76761;SDS011;65705;51.032;13.790;2023-05-10T05:01:41;3.97;;;0.93;;
76761;SDS011;65705;51.032;13.790;2023-05-10T05:04:06;8.90;;;1.98;;
76761;SDS011;65705;51.032;13.790;2023-05-10T05:06:32;2.97;;;1.40;;
76761;SDS011;65705;51.032;13.790;2023-05-10T05:08:58;5.97;;;1.40;;
76761;SDS011;65705;51.032;13.790;2023-05-10T05:11:23;5.43;;;1.20;;
76761;SDS011;65705;51.032;13.790;2023-05-10T05:13:50;3.22;;;1.40;;
76761;SDS011;65705;51.032;13.790;2023-05-10T05:16:16;3.00;;;1.30;;
76761;SDS011;65705;51.032;13.790;2023-05-10T05:18:42;5.30;;;1.40;;
76761;SDS011;65705;51.032;13.790;2023-05-10T05:21:14;4.32;;;1.40;;
76761;SDS011;65705;51.032;13.790;2023-05-10T05:23:42;4.90;;;1.50;;
76761;SDS011;65705;51.032;13.790;2023-05-10T05:26:08;3.17;;;1.13;;
76761;SDS011;65705;51.032;13.790;2023-05-10T05:28:34;2.03;;;1.02;;
76761;SDS011;65705;51.032;13.790;2023-05-10T05:31:05;6.15;;;1.40;;
76761;SDS011;65705;51.032;13.790;2023-05-10T05:33:33;6.82;;;1.58;;
76761;SDS011;65705;51.032;13.790;2023-05-10T05:36:02;5.10;;;1.58;;
76761;SDS011;65705;51.032;13.790;2023-05-10T05:38:29;4.88;;;1.30;;
76761;SDS011;65705;51.032;13.790;2023-05-10T05:40:55;3.53;;;1.20;;
76761;SDS011;65705;51.032;13.790;2023-05-10T05:43:22;3.17;;;1.80;;
76761;SDS011;65705;51.032;13.790;2023-05-10T05:45:48;7.45;;;1.70;;
76761;SDS011;65705;51.032;13.790;2023-05-10T05:48:14;14.40;;;1.50;;
76761;SDS011;65705;51.032;13.790;2023-05-10T05:50:40;5.22;;;1.50;;
76761;SDS011;65705;51.032;13.790;2023-05-10T05:53:06;3.08;;;1.52;;
76761;SDS011;65705;51.032;13.790;2023-05-10T05:55:31;5.72;;;1.50;;
76761;SDS011;65705;51.032;13.790;2023-05-10T05:57:58;3.47;;;1.55;;
76761;SDS011;65705;51.032;13.790;2023-05-10T06:00:23;4.40;;;1.27;;
76761;SDS011;65705;51.032;13.790;2023-05-10T06:02:49;4.05;;;1.33;;
76761;SDS011;65705;51.032;13.790;2023-05-10T06:05:15;6.57;;;1.48;;
76761;SDS011;65705;51.032;13.790;2023-05-10T06:07:41;4.70;;;1.48;;
76761;SDS011;65705;51.032;13.790;2023-05-10T06:10:09;2.33;;;1.20;;
76761;SDS011;65705;51.032;13.790;2023-05-10T06:12:35;8.20;;;1.42;;
76761;SDS011;65705;51.032;13.790;2023-05-10T06:15:01;12.93;;;2.08;;
76761;SDS011;65705;51.032;13.790;2023-05-10T06:17:29;3.47;;;1.40;;
76761;SDS011;65705;51.032;13.790;2023-05-10T06:19:55;9.13;;;1.60;;
76761;SDS011;65705;51.032;13.790;2023-05-10T06:22:21;5.57;;;1.55;;
76761;SDS011;65705;51.032;13.790;2023-05-10T06:24:48;10.18;;;1.90;;
76761;SDS011;65705;51.032;13.790;2023-05-10T06:27:14;7.45;;;1.80;;
76761;SDS011;65705;51.032;13.790;2023-05-10T06:29:40;10.20;;;1.92;;
76761;SDS011;65705;51.032;13.790;2023-05-10T06:32:05;5.45;;;1.42;;
76761;SDS011;65705;51.032;13.790;2023-05-10T06:34:31;4.38;;;1.88;;
76761;SDS011;65705;51.032;13.790;2023-05-10T06:36:57;6.78;;;1.30;;
76761;SDS011;65705;51.032;13.790;2023-05-10T06:39:23;10.73;;;1.80;;
76761;SDS011;65705;51.032;13.790;2023-05-10T06:41:48;6.13;;;1.60;;
76761;SDS011;65705;51.032;13.790;2023-05-10T06:44:14;6.38;;;1.38;;
76761;SDS011;65705;51.032;13.790;2023-05-10T06:46:40;6.40;;;1.60;;
76761;SDS011;65705;51.032;13.790;2023-05-10T06:49:06;3.22;;;1.40;;
76761;SDS011;65705;51.032;13.790;2023-05-10T06:51:33;3.35;;;1.38;;
76761;SDS011;65705;51.032;13.790;2023-05-10T06:53:59;12.13;;;1.77;;
76761;SDS011;65705;51.032;13.790;2023-05-10T06:56:25;5.35;;;1.45;;
76761;SDS011;65705;51.032;13.790;2023-05-10T06:58:51;6.22;;;1.30;;
76761;SDS011;65705;51.032;13.790;2023-05-10T07:01:17;5.05;;;1.58;;
76761;SDS011;65705;51.032;13.790;2023-05-10T07:03:42;4.13;;;1.50;;
76761;SDS011;65705;51.032;13.790;2023-05-10T07:06:08;5.25;;;1.50;;
76761;SDS011;65705;51.032;13.790;2023-05-10T07:08:34;4.53;;;1.80;;
76761;SDS011;65705;51.032;13.790;2023-05-10T07:11:03;4.13;;;1.80;;
76761;SDS011;65705;51.032;13.790;2023-05-10T07:13:30;7.82;;;1.70;;
76761;SDS011;65705;51.032;13.790;2023-05-10T07:15:57;9.07;;;2.22;;
76761;SDS011;65705;51.032;13.790;2023-05-10T07:18:23;3.70;;;1.63;;
76761;SDS011;65705;51.032;13.790;2023-05-10T07:20:49;4.72;;;1.50;;
76761;SDS011;65705;51.032;13.790;2023-05-10T07:23:15;3.70;;;1.70;;
76761;SDS011;65705;51.032;13.790;2023-05-10T07:25:46;3.50;;;1.50;;
76761;SDS011;65705;51.032;13.790;2023-05-10T07:30:39;4.90;;;1.30;;
76761;SDS011;65705;51.032;13.790;2023-05-10T07:33:04;5.40;;;1.60;;
76761;SDS011;65705;51.032;13.790;2023-05-10T07:35:30;4.05;;;1.83;;
76761;SDS011;65705;51.032;13.790;2023-05-10T07:37:56;3.78;;;1.70;;
76761;SDS011;65705;51.032;13.790;2023-05-10T07:40:21;9.52;;;2.35;;
76761;SDS011;65705;51.032;13.790;2023-05-10T07:42:47;4.20;;;1.73;;
76761;SDS011;65705;51.032;13.790;2023-05-10T07:45:13;5.82;;;1.90;;
76761;SDS011;65705;51.032;13.790;2023-05-10T07:47:39;3.67;;;1.70;;
76761;SDS011;65705;51.032;13.790;2023-05-10T07:50:04;2.97;;;1.50;;
76761;SDS011;65705;51.032;13.790;2023-05-10T07:52:31;6.13;;;1.60;;
76761;SDS011;65705;51.032;13.790;2023-05-10T07:54:56;3.53;;;1.73;;
76761;SDS011;65705;51.032;13.790;2023-05-10T07:57:22;5.03;;;1.65;;
76761;SDS011;65705;51.032;13.790;2023-05-10T07:59:50;9.32;;;2.08;;
76761;SDS011;65705;51.032;13.790;2023-05-10T08:02:16;3.45;;;1.73;;
76761;SDS011;65705;51.032;13.790;2023-05-10T08:04:41;4.93;;;1.58;;
76761;SDS011;65705;51.032;13.790;2023-05-10T08:07:07;6.47;;;1.70;;
76761;SDS011;65705;51.032;13.790;2023-05-10T08:09:33;3.38;;;1.50;;
76761;SDS011;65705;51.032;13.790;2023-05-10T08:11:58;5.13;;;1.95;;
76761;SDS011;65705;51.032;13.790;2023-05-10T08:14:28;3.00;;;1.50;;
76761;SDS011;65705;51.032;13.790;2023-05-10T08:16:54;7.20;;;1.75;;
76761;SDS011;65705;51.032;13.790;2023-05-10T08:19:20;4.03;;;1.70;;
76761;SDS011;65705;51.032;13.790;2023-05-10T08:21:46;5.07;;;1.58;;
76761;SDS011;65705;51.032;13.790;2023-05-10T08:24:12;2.75;;;1.42;;
76761;SDS011;65705;51.032;13.790;2023-05-10T08:26:38;9.35;;;1.90;;
76761;SDS011;65705;51.032;13.790;2023-05-10T08:29:04;4.07;;;1.75;;
76761;SDS011;65705;51.032;13.790;2023-05-10T08:31:30;4.55;;;1.63;;
76761;SDS011;65705;51.032;13.790;2023-05-10T08:33:55;4.35;;;1.70;;
76761;SDS011;65705;51.032;13.790;2023-05-10T08:36:21;5.38;;;1.92;;
76761;SDS011;65705;51.032;13.790;2023-05-10T08:38:52;9.35;;;2.38;;
76761;SDS011;65705;51.032;13.790;2023-05-10T08:41:22;4.35;;;1.63;;
76761;SDS011;65705;51.032;13.790;2023-05-10T08:43:51;5.10;;;1.70;;
76761;SDS011;65705;51.032;13.790;2023-05-10T08:46:19;5.82;;;1.80;;
76761;SDS011;65705;51.032;13.790;2023-05-10T08:48:46;4.47;;;1.77;;
76761;SDS011;65705;51.032;13.790;2023-05-10T08:51:13;8.13;;;2.05;;
76761;SDS011;65705;51.032;13.790;2023-05-10T08:53:43;3.97;;;1.60;;
76761;SDS011;65705;51.032;13.790;2023-05-10T08:56:09;5.55;;;1.98;;
76761;SDS011;65705;51.032;13.790;2023-05-10T08:58:35;9.65;;;2.08;;
76761;SDS011;65705;51.032;13.790;2023-05-10T09:01:02;4.47;;;1.80;;
76761;SDS011;65705;51.032;13.790;2023-05-10T09:03:28;7.20;;;2.15;;
76761;SDS011;65705;51.032;13.790;2023-05-10T09:05:55;3.33;;;1.67;;
76761;SDS011;65705;51.032;13.790;2023-05-10T09:08:22;4.25;;;1.80;;
76761;SDS011;65705;51.032;13.790;2023-05-10T09:10:51;6.50;;;2.10;;
76761;SDS011;65705;51.032;13.790;2023-05-10T09:13:17;9.45;;;2.63;;
76761;SDS011;65705;51.032;13.790;2023-05-10T09:15:44;4.78;;;2.00;;
76761;SDS011;65705;51.032;13.790;2023-05-10T09:18:11;3.88;;;2.10;;
76761;SDS011;65705;51.032;13.790;2023-05-10T09:20:37;5.25;;;1.88;;
76761;SDS011;65705;51.032;13.790;2023-05-10T09:23:02;3.47;;;1.73;;
76761;SDS011;65705;51.032;13.790;2023-05-10T09:25:28;3.95;;;2.00;;
76761;SDS011;65705;51.032;13.790;2023-05-10T09:27:54;5.30;;;2.20;;
76761;SDS011;65705;51.032;13.790;2023-05-10T09:30:29;4.00;;;1.90;;
76761;SDS011;65705;51.032;13.790;2023-05-10T09:32:56;5.60;;;2.20;;
76761;SDS011;65705;51.032;13.790;2023-05-10T09:35:24;4.78;;;2.17;;
76761;SDS011;65705;51.032;13.790;2023-05-10T09:37:52;5.95;;;2.10;;
76761;SDS011;65705;51.032;13.790;2023-05-10T09:40:25;8.57;;;2.97;;
76761;SDS011;65705;51.032;13.790;2023-05-10T09:45:18;4.68;;;2.30;;
76761;SDS011;65705;51.032;13.790;2023-05-10T09:47:45;5.28;;;2.20;;
76761;SDS011;65705;51.032;13.790;2023-05-10T09:50:11;5.53;;;2.08;;
76761;SDS011;65705;51.032;13.790;2023-05-10T09:52:46;5.35;;;2.33;;
76761;SDS011;65705;51.032;13.790;2023-05-10T09:55:22;4.70;;;2.13;;
76761;SDS011;65705;51.032;13.790;2023-05-10T09:57:58;4.22;;;2.00;;
76761;SDS011;65705;51.032;13.790;2023-05-10T10:00:25;7.90;;;2.08;;
76761;SDS011;65705;51.032;13.790;2023-05-10T10:02:55;3.75;;;1.83;;
76761;SDS011;65705;51.032;13.790;2023-05-10T10:05:31;7.93;;;2.67;;
76761;SDS011;65705;51.032;13.790;2023-05-10T10:08:04;10.05;;;2.92;;
76761;SDS011;65705;51.032;13.790;2023-05-10T10:10:30;6.45;;;2.78;;
76761;SDS011;65705;51.032;13.790;2023-05-10T10:12:57;6.80;;;2.42;;
76761;SDS011;65705;51.032;13.790;2023-05-10T10:15:23;8.52;;;2.30;;
76761;SDS011;65705;51.032;13.790;2023-05-10T10:17:50;8.45;;;1.70;;
76761;SDS011;65705;51.032;13.790;2023-05-10T10:20:17;3.40;;;1.92;;
76761;SDS011;65705;51.032;13.790;2023-05-10T10:22:45;3.95;;;2.15;;
76761;SDS011;65705;51.032;13.790;2023-05-10T10:25:12;6.90;;;1.98;;
76761;SDS011;65705;51.032;13.790;2023-05-10T10:27:54;5.85;;;1.88;;
76761;SDS011;65705;51.032;13.790;2023-05-10T10:30:31;6.22;;;2.13;;
76761;SDS011;65705;51.032;13.790;2023-05-10T10:35:45;8.20;;;2.35;;
76761;SDS011;65705;51.032;13.790;2023-05-10T10:38:14;5.25;;;2.22;;
76761;SDS011;65705;51.032;13.790;2023-05-10T10:40:40;4.43;;;2.00;;
76761;SDS011;65705;51.032;13.790;2023-05-10T10:43:25;4.85;;;1.95;;
76761;SDS011;65705;51.032;13.790;2023-05-10T10:49:08;6.03;;;2.08;;
76761;SDS011;65705;51.032;13.790;2023-05-10T10:51:38;3.88;;;2.40;;
76761;SDS011;65705;51.032;13.790;2023-05-10T10:54:11;8.98;;;3.00;;
76761;SDS011;65705;51.032;13.790;2023-05-10T10:56:37;7.57;;;3.22;;
76761;SDS011;65705;51.032;13.790;2023-05-10T10:59:03;7.07;;;2.47;;
76761;SDS011;65705;51.032;13.790;2023-05-10T11:01:34;4.63;;;2.20;;
76761;SDS011;65705;51.032;13.790;2023-05-10T11:06:29;4.55;;;1.80;;
76761;SDS011;65705;51.032;13.790;2023-05-10T11:09:08;6.03;;;2.15;;
76761;SDS011;65705;51.032;13.790;2023-05-10T11:11:48;5.70;;;2.00;;
76761;SDS011;65705;51.032;13.790;2023-05-10T11:14:17;4.40;;;1.85;;
76761;SDS011;65705;51.032;13.790;2023-05-10T11:19:12;4.75;;;2.00;;
76761;SDS011;65705;51.032;13.790;2023-05-10T11:24:16;5.68;;;2.05;;
76761;SDS011;65705;51.032;13.790;2023-05-10T11:26:49;4.90;;;1.85;;
76761;SDS011;65705;51.032;13.790;2023-05-10T11:29:16;11.77;;;2.53;;
76761;SDS011;65705;51.032;13.790;2023-05-10T11:31:43;5.95;;;2.40;;
76761;SDS011;65705;51.032;13.790;2023-05-10T11:34:10;4.72;;;2.15;;
76761;SDS011;65705;51.032;13.790;2023-05-10T11:36:36;6.57;;;1.88;;
76761;SDS011;65705;51.032;13.790;2023-05-10T11:39:02;5.13;;;2.00;;
76761;SDS011;65705;51.032;13.790;2023-05-10T11:41:29;7.43;;;2.30;;
76761;SDS011;65705;51.032;13.790;2023-05-10T11:43:56;6.50;;;2.20;;
76761;SDS011;65705;51.032;13.790;2023-05-10T11:46:24;8.43;;;2.83;;
76761;SDS011;65705;51.032;13.790;2023-05-10T11:48:57;8.25;;;4.07;;
76761;SDS011;65705;51.032;13.790;2023-05-10T11:51:27;7.18;;;2.40;;
76761;SDS011;65705;51.032;13.790;2023-05-10T11:53:53;2.92;;;1.75;;
76761;SDS011;65705;51.032;13.790;2023-05-10T11:56:20;6.40;;;2.13;;
76761;SDS011;65705;51.032;13.790;2023-05-10T11:58:52;5.55;;;2.20;;
76761;SDS011;65705;51.032;13.790;2023-05-10T12:01:23;3.83;;;1.92;;
76761;SDS011;65705;51.032;13.790;2023-05-10T12:03:50;7.82;;;2.30;;
76761;SDS011;65705;51.032;13.790;2023-05-10T12:06:20;6.30;;;2.00;;
76761;SDS011;65705;51.032;13.790;2023-05-10T12:08:47;6.53;;;2.33;;
76761;SDS011;65705;51.032;13.790;2023-05-10T12:11:17;7.18;;;2.50;;
76761;SDS011;65705;51.032;13.790;2023-05-10T12:13:44;8.35;;;2.55;;
76761;SDS011;65705;51.032;13.790;2023-05-10T12:16:13;4.65;;;2.40;;
76761;SDS011;65705;51.032;13.790;2023-05-10T12:18:40;3.65;;;2.10;;
76761;SDS011;65705;51.032;13.790;2023-05-10T12:21:09;4.82;;;2.20;;
76761;SDS011;65705;51.032;13.790;2023-05-10T12:23:37;4.82;;;1.85;;
76761;SDS011;65705;51.032;13.790;2023-05-10T12:26:03;4.93;;;1.95;;
76761;SDS011;65705;51.032;13.790;2023-05-10T12:28:30;5.28;;;2.35;;
76761;SDS011;65705;51.032;13.790;2023-05-10T12:30:57;4.72;;;2.05;;
76761;SDS011;65705;51.032;13.790;2023-05-10T12:33:24;5.68;;;1.90;;
76761;SDS011;65705;51.032;13.790;2023-05-10T12:35:50;6.63;;;2.45;;
76761;SDS011;65705;51.032;13.790;2023-05-10T12:38:25;7.03;;;3.08;;
76761;SDS011;65705;51.032;13.790;2023-05-10T12:40:55;7.35;;;3.63;;
76761;SDS011;65705;51.032;13.790;2023-05-10T12:43:22;8.40;;;2.92;;
76761;SDS011;65705;51.032;13.790;2023-05-10T12:45:48;9.57;;;2.38;;
76761;SDS011;65705;51.032;13.790;2023-05-10T12:48:17;4.00;;;2.20;;
76761;SDS011;65705;51.032;13.790;2023-05-10T12:50:42;6.45;;;2.42;;
76761;SDS011;65705;51.032;13.790;2023-05-10T12:53:08;4.05;;;2.22;;
76761;SDS011;65705;51.032;13.790;2023-05-10T12:55:34;4.18;;;2.08;;
76761;SDS011;65705;51.032;13.790;2023-05-10T12:57:59;5.63;;;2.20;;
76761;SDS011;65705;51.032;13.790;2023-05-10T13:00:25;10.15;;;2.53;;
76761;SDS011;65705;51.032;13.790;2023-05-10T13:02:51;6.88;;;2.20;;
76761;SDS011;65705;51.032;13.790;2023-05-10T13:05:17;5.68;;;1.92;;
76761;SDS011;65705;51.032;13.790;2023-05-10T13:07:43;7.20;;;2.25;;
76761;SDS011;65705;51.032;13.790;2023-05-10T13:10:09;10.25;;;2.45;;
76761;SDS011;65705;51.032;13.790;2023-05-10T13:12:35;4.78;;;1.88;;
76761;SDS011;65705;51.032;13.790;2023-05-10T13:15:01;5.13;;;1.83;;
76761;SDS011;65705;51.032;13.790;2023-05-10T13:17:29;6.22;;;1.90;;
76761;SDS011;65705;51.032;13.790;2023-05-10T13:19:55;4.55;;;1.95;;
76761;SDS011;65705;51.032;13.790;2023-05-10T13:22:20;6.07;;;2.03;;
76761;SDS011;65705;51.032;13.790;2023-05-10T13:24:46;8.95;;;2.10;;
76761;SDS011;65705;51.032;13.790;2023-05-10T13:27:11;8.52;;;2.10;;
76761;SDS011;65705;51.032;13.790;2023-05-10T13:29:37;9.23;;;2.15;;
76761;SDS011;65705;51.032;13.790;2023-05-10T13:32:03;9.57;;;4.53;;
76761;SDS011;65705;51.032;13.790;2023-05-10T13:34:29;4.30;;;2.10;;
76761;SDS011;65705;51.032;13.790;2023-05-10T13:36:55;6.30;;;2.42;;
76761;SDS011;65705;51.032;13.790;2023-05-10T13:39:21;5.50;;;2.10;;
76761;SDS011;65705;51.032;13.790;2023-05-10T13:41:47;3.15;;;1.92;;
76761;SDS011;65705;51.032;13.790;2023-05-10T13:44:13;3.67;;;1.75;;
76761;SDS011;65705;51.032;13.790;2023-05-10T13:46:40;4.57;;;1.70;;
76761;SDS011;65705;51.032;13.790;2023-05-10T13:49:08;8.07;;;1.75;;
76761;SDS011;65705;51.032;13.790;2023-05-10T13:51:34;6.40;;;2.05;;
76761;SDS011;65705;51.032;13.790;2023-05-10T13:54:03;4.15;;;1.83;;
76761;SDS011;65705;51.032;13.790;2023-05-10T13:56:29;5.15;;;2.03;;
76761;SDS011;65705;51.032;13.790;2023-05-10T13:58:56;4.13;;;1.92;;
76761;SDS011;65705;51.032;13.790;2023-05-10T14:01:23;5.38;;;3.17;;
76761;SDS011;65705;51.032;13.790;2023-05-10T14:03:49;6.78;;;2.67;;
76761;SDS011;65705;51.032;13.790;2023-05-10T14:06:15;5.60;;;2.80;;
76761;SDS011;65705;51.032;13.790;2023-05-10T14:08:40;8.77;;;2.67;;
76761;SDS011;65705;51.032;13.790;2023-05-10T14:11:06;4.28;;;1.90;;
76761;SDS011;65705;51.032;13.790;2023-05-10T14:13:32;4.68;;;2.13;;
76761;SDS011;65705;51.032;13.790;2023-05-10T14:15:58;5.45;;;1.88;;
76761;SDS011;65705;51.032;13.790;2023-05-10T14:18:26;3.60;;;1.90;;
76761;SDS011;65705;51.032;13.790;2023-05-10T14:20:52;4.03;;;2.00;;
76761;SDS011;65705;51.032;13.790;2023-05-10T14:23:18;2.85;;;1.60;;
76761;SDS011;65705;51.032;13.790;2023-05-10T14:25:49;5.40;;;2.20;;
76761;SDS011;65705;51.032;13.790;2023-05-10T14:28:16;6.43;;;2.20;;
76761;SDS011;65705;51.032;13.790;2023-05-10T14:30:43;6.55;;;1.77;;
76761;SDS011;65705;51.032;13.790;2023-05-10T14:33:10;6.05;;;1.90;;
76761;SDS011;65705;51.032;13.790;2023-05-10T14:35:48;6.82;;;1.85;;
76761;SDS011;65705;51.032;13.790;2023-05-10T14:38:14;3.40;;;1.90;;
76761;SDS011;65705;51.032;13.790;2023-05-10T14:40:40;6.32;;;1.95;;
76761;SDS011;65705;51.032;13.790;2023-05-10T14:43:05;5.57;;;3.10;;
76761;SDS011;65705;51.032;13.790;2023-05-10T14:45:31;6.30;;;2.15;;
76761;SDS011;65705;51.032;13.790;2023-05-10T14:47:57;8.15;;;3.20;;
76761;SDS011;65705;51.032;13.790;2023-05-10T14:50:24;5.55;;;3.10;;
76761;SDS011;65705;51.032;13.790;2023-05-10T14:52:50;6.28;;;2.42;;
76761;SDS011;65705;51.032;13.790;2023-05-10T14:55:15;5.38;;;2.63;;
76761;SDS011;65705;51.032;13.790;2023-05-10T14:57:42;5.00;;;2.28;;
76761;SDS011;65705;51.032;13.790;2023-05-10T15:00:09;4.00;;;1.83;;
76761;SDS011;65705;51.032;13.790;2023-05-10T15:02:35;4.32;;;1.80;;
76761;SDS011;65705;51.032;13.790;2023-05-10T15:05:01;3.50;;;1.75;;
76761;SDS011;65705;51.032;13.790;2023-05-10T15:07:27;4.25;;;2.00;;
76761;SDS011;65705;51.032;13.790;2023-05-10T15:09:53;5.38;;;1.98;;
76761;SDS011;65705;51.032;13.790;2023-05-10T15:12:19;5.07;;;2.03;;